Time,TemperatureF,DewpointF,PressureIn,WindDirection,WindDirectionDegrees,WindSpeedMPH,WindSpeedGustMPH,Humidity,HourlyPrecipIn,Conditions,Clouds,dailyrainin,SoftwareType,DateUTC
2013-04-16 00:00:00,37.8,24.3,30.20,NNW,338,0.4,0.7,58,0.00,,,0.00,WUHU216HW,2013-04-16 07:00:00,
2013-04-16 00:05:00,37.6,24.1,30.20,NNW,338,0.2,0.7,58,0.00,,,0.00,WUHU216HW,2013-04-16 07:05:00,
2013-04-16 00:10:00,37.6,24.1,30.20,NNW,338,0.0,0.4,58,0.00,,,0.00,WUHU216HW,2013-04-16 07:10:00,
2013-04-16 00:15:00,37.6,24.6,30.20,NNW,338,0.0,0.4,59,0.00,,,0.00,WUHU216HW,2013-04-16 07:15:00,
2013-04-16 00:20:00,37.4,24.4,30.20,NNW,338,0.4,0.4,59,0.00,,,0.00,WUHU216HW,2013-04-16 07:20:00,
2013-04-16 00:25:00,37.4,24.4,30.21,NNW,338,0.9,1.1,59,0.00,,,0.00,WUHU216HW,2013-04-16 07:25:00,
2013-04-16 00:30:00,37.3,24.2,30.21,NNW,338,0.0,1.1,59,0.00,,,0.00,WUHU216HW,2013-04-16 07:30:00,
2013-04-16 00:35:00,37.3,23.9,30.21,NNW,338,0.2,0.7,58,0.00,,,0.00,WUHU216HW,2013-04-16 07:35:00,
2013-04-16 00:40:00,37.1,24.1,30.21,NNW,338,0.0,0.7,59,0.00,,,0.00,WUHU216HW,2013-04-16 07:40:00,
2013-04-16 00:45:00,37.1,24.1,30.21,NNW,338,0.4,0.7,59,0.00,,,0.00,WUHU216HW,2013-04-16 07:45:00,
2013-04-16 00:50:00,36.9,24.0,30.21,NNW,338,0.0,0.4,59,0.00,,,0.00,WUHU216HW,2013-04-16 07:50:00,
2013-04-16 00:55:00,36.7,23.8,30.21,NNW,338,0.0,0.4,59,0.00,,,0.00,WUHU216HW,2013-04-16 07:55:00,
2013-04-16 01:00:00,36.7,23.8,30.22,NNW,338,0.0,0.4,59,0.00,,,0.00,WUHU216HW,2013-04-16 08:00:00,
2013-04-16 01:05:00,36.7,23.8,30.22,NNW,338,0.0,0.4,59,0.00,,,0.00,WUHU216HW,2013-04-16 08:05:00,
2013-04-16 01:10:00,36.5,23.6,30.22,NNW,338,0.0,0.0,59,0.00,,,0.00,WUHU216HW,2013-04-16 08:10:00,
2013-04-16 01:15:00,36.5,23.6,30.22,NNW,338,0.2,0.2,59,0.00,,,0.00,WUHU216HW,2013-04-16 08:15:00,
2013-04-16 01:20:00,36.4,23.4,30.22,NNW,338,0.2,0.7,59,0.00,,,0.00,WUHU216HW,2013-04-16 08:20:00,
2013-04-16 01:25:00,36.4,23.4,30.23,NNW,338,0.0,0.7,59,0.00,,,0.00,WUHU216HW,2013-04-16 08:25:00,
2013-04-16 01:30:00,36.4,23.4,30.23,NNW,338,0.4,0.4,59,0.00,,,0.00,WUHU216HW,2013-04-16 08:30:00,
2013-04-16 01:35:00,36.4,23.4,30.23,NNW,338,0.0,0.4,59,0.00,,,0.00,WUHU216HW,2013-04-16 08:35:00,
2013-04-16 01:40:00,36.4,23.4,30.23,NNW,338,0.4,0.4,59,0.00,,,0.00,WUHU216HW,2013-04-16 08:40:00,
2013-04-16 01:45:00,36.4,23.4,30.23,NNW,338,0.4,0.4,59,0.00,,,0.00,WUHU216HW,2013-04-16 08:45:00,
2013-04-16 01:50:00,36.4,23.4,30.23,NNW,338,0.0,0.4,59,0.00,,,0.00,WUHU216HW,2013-04-16 08:50:00,
2013-04-16 01:55:00,36.2,23.3,30.23,NNW,338,0.0,0.4,59,0.00,,,0.00,WUHU216HW,2013-04-16 08:55:00,
2013-04-16 02:00:00,36.0,23.1,30.23,NNW,338,0.0,0.0,59,0.00,,,0.00,WUHU216HW,2013-04-16 09:00:00,
2013-04-16 02:05:00,36.2,23.3,30.23,NNW,338,0.0,0.0,59,0.00,,,0.00,WUHU216HW,2013-04-16 09:05:00,
2013-04-16 02:10:00,36.2,23.3,30.23,NNW,338,0.0,0.0,59,0.00,,,0.00,WUHU216HW,2013-04-16 09:10:00,
2013-04-16 02:15:00,36.2,23.3,30.23,NNW,338,0.0,0.0,59,0.00,,,0.00,WUHU216HW,2013-04-16 09:15:00,
2013-04-16 02:20:00,36.0,23.6,30.23,NNW,338,0.0,0.0,60,0.00,,,0.00,WUHU216HW,2013-04-16 09:20:00,
2013-04-16 02:25:00,36.0,23.6,30.23,NNW,338,0.0,0.0,60,0.00,,,0.00,WUHU216HW,2013-04-16 09:25:00,
2013-04-16 02:30:00,36.0,23.6,30.23,NNW,338,0.0,0.0,60,0.00,,,0.00,WUHU216HW,2013-04-16 09:30:00,
2013-04-16 02:35:00,36.0,23.6,30.23,NNW,338,0.0,0.0,60,0.00,,,0.00,WUHU216HW,2013-04-16 09:35:00,
2013-04-16 02:40:00,35.8,23.4,30.23,NNW,338,0.0,0.0,60,0.00,,,0.00,WUHU216HW,2013-04-16 09:40:00,
2013-04-16 02:45:00,36.0,23.6,30.23,NNW,338,0.0,0.0,60,0.00,,,0.00,WUHU216HW,2013-04-16 09:45:00,
2013-04-16 02:50:00,35.8,23.4,30.23,NNW,338,0.4,0.4,60,0.00,,,0.00,WUHU216HW,2013-04-16 09:50:00,
2013-04-16 02:55:00,35.6,23.2,30.23,NNW,338,0.0,0.4,60,0.00,,,0.00,WUHU216HW,2013-04-16 09:55:00,
2013-04-16 03:00:00,35.6,23.2,30.23,NNW,338,0.0,0.4,60,0.00,,,0.00,WUHU216HW,2013-04-16 10:00:00,
2013-04-16 03:05:00,35.8,23.4,30.23,NNE,23,0.0,0.7,60,0.00,,,0.00,WUHU216HW,2013-04-16 10:05:00,
2013-04-16 03:10:00,35.6,23.2,30.24,NNE,23,0.0,0.7,60,0.00,,,0.00,WUHU216HW,2013-04-16 10:10:00,
2013-04-16 03:15:00,35.6,23.2,30.24,NNE,23,0.0,0.7,60,0.00,,,0.00,WUHU216HW,2013-04-16 10:15:00,
2013-04-16 03:20:00,35.8,23.4,30.24,NNE,23,0.0,0.7,60,0.00,,,0.00,WUHU216HW,2013-04-16 10:20:00,
2013-04-16 03:25:00,35.6,23.2,30.24,NNE,23,0.0,0.4,60,0.00,,,0.00,WUHU216HW,2013-04-16 10:25:00,
2013-04-16 03:30:00,35.5,23.0,30.24,NNE,23,0.0,0.7,60,0.00,,,0.00,WUHU216HW,2013-04-16 10:30:00,
2013-04-16 03:35:00,35.6,23.2,30.24,NNE,23,0.0,0.7,60,0.00,,,0.00,WUHU216HW,2013-04-16 10:35:00,
2013-04-16 03:40:00,35.6,23.2,30.24,NNE,23,0.0,0.4,60,0.00,,,0.00,WUHU216HW,2013-04-16 10:40:00,
2013-04-16 03:45:00,35.6,23.2,30.24,NNE,23,0.0,0.0,60,0.00,,,0.00,WUHU216HW,2013-04-16 10:45:00,
2013-04-16 03:50:00,35.5,23.0,30.25,NNE,23,0.0,0.0,60,0.00,,,0.00,WUHU216HW,2013-04-16 10:50:00,
2013-04-16 03:55:00,35.3,22.9,30.25,NNE,23,0.0,0.0,60,0.00,,,0.00,WUHU216HW,2013-04-16 10:55:00,
2013-04-16 04:00:00,35.3,22.9,30.25,NNE,23,0.0,0.0,60,0.00,,,0.00,WUHU216HW,2013-04-16 11:00:00,
2013-04-16 04:05:00,35.3,22.9,30.25,NNE,23,0.0,0.0,60,0.00,,,0.00,WUHU216HW,2013-04-16 11:05:00,
2013-04-16 04:10:00,35.3,22.9,30.25,NNE,23,0.0,0.0,60,0.00,,,0.00,WUHU216HW,2013-04-16 11:10:00,
2013-04-16 04:15:00,35.3,22.9,30.26,NNE,23,0.0,0.0,60,0.00,,,0.00,WUHU216HW,2013-04-16 11:15:00,
2013-04-16 04:20:00,34.9,22.5,30.25,NNE,23,0.0,0.0,60,0.00,,,0.00,WUHU216HW,2013-04-16 11:20:00,
2013-04-16 04:25:00,34.9,22.1,30.26,NNE,23,0.0,0.0,59,0.00,,,0.00,WUHU216HW,2013-04-16 11:25:00,
2013-04-16 04:30:00,34.7,21.9,30.25,NNE,23,0.0,0.0,59,0.00,,,0.00,WUHU216HW,2013-04-16 11:30:00,
2013-04-16 04:35:00,34.7,21.9,30.25,NNE,23,0.4,0.4,59,0.00,,,0.00,WUHU216HW,2013-04-16 11:35:00,
2013-04-16 04:40:00,34.9,22.1,30.26,NNE,23,0.0,0.4,59,0.00,,,0.00,WUHU216HW,2013-04-16 11:40:00,
2013-04-16 04:45:00,34.7,21.9,30.26,NNE,23,0.0,0.4,59,0.00,,,0.00,WUHU216HW,2013-04-16 11:45:00,
2013-04-16 04:50:00,34.6,21.7,30.26,NNE,23,0.4,0.4,59,0.00,,,0.00,WUHU216HW,2013-04-16 11:50:00,
2013-04-16 04:55:00,34.7,21.9,30.26,NNE,23,0.4,0.4,59,0.00,,,0.00,WUHU216HW,2013-04-16 11:55:00,
2013-04-16 05:00:00,34.9,22.1,30.26,NNE,23,0.0,0.4,59,0.00,,,0.00,WUHU216HW,2013-04-16 12:00:00,
2013-04-16 05:05:00,34.7,21.9,30.26,NNE,23,0.0,0.4,59,0.00,,,0.00,WUHU216HW,2013-04-16 12:05:00,
2013-04-16 05:10:00,34.7,21.9,30.26,NNE,23,0.0,0.0,59,0.00,,,0.00,WUHU216HW,2013-04-16 12:10:00,
2013-04-16 05:15:00,34.7,21.9,30.26,NNE,23,0.0,0.4,59,0.00,,,0.00,WUHU216HW,2013-04-16 12:15:00,
2013-04-16 05:20:00,34.7,21.9,30.26,NNE,23,0.0,0.4,59,0.00,,,0.00,WUHU216HW,2013-04-16 12:20:00,
2013-04-16 05:25:00,34.6,21.7,30.26,NNE,23,0.0,0.4,59,0.00,,,0.00,WUHU216HW,2013-04-16 12:25:00,
2013-04-16 05:30:00,34.6,21.7,30.27,NNE,23,0.0,0.0,59,0.00,,,0.00,WUHU216HW,2013-04-16 12:30:00,
2013-04-16 05:35:00,34.6,21.7,30.27,NNE,23,0.0,0.4,59,0.00,,,0.00,WUHU216HW,2013-04-16 12:35:00,
2013-04-16 05:40:00,34.6,21.7,30.27,NNE,23,0.4,0.4,59,0.00,,,0.00,WUHU216HW,2013-04-16 12:40:00,
2013-04-16 05:45:00,34.4,21.5,30.27,NNE,23,0.0,0.4,59,0.00,,,0.00,WUHU216HW,2013-04-16 12:45:00,
2013-04-16 05:50:00,34.4,22.0,30.27,NNE,23,0.0,0.4,60,0.00,,,0.00,WUHU216HW,2013-04-16 12:50:00,
2013-04-16 05:55:00,34.4,22.0,30.27,NNE,23,0.0,0.4,60,0.00,,,0.00,WUHU216HW,2013-04-16 12:55:00,
2013-04-16 06:00:00,34.2,21.8,30.27,NNE,23,0.2,0.4,60,0.00,,,0.00,WUHU216HW,2013-04-16 13:00:00,
2013-04-16 06:05:00,34.2,21.8,30.28,NNE,23,0.4,0.4,60,0.00,,,0.00,WUHU216HW,2013-04-16 13:05:00,
2013-04-16 06:10:00,34.2,21.3,30.28,NNE,23,0.0,0.4,59,0.00,,,0.00,WUHU216HW,2013-04-16 13:10:00,
2013-04-16 06:15:00,34.2,21.8,30.28,NNE,23,0.4,0.4,60,0.00,,,0.00,WUHU216HW,2013-04-16 13:15:00,
2013-04-16 06:20:00,34.2,21.8,30.28,NNE,23,0.4,0.7,60,0.00,,,0.00,WUHU216HW,2013-04-16 13:20:00,
2013-04-16 06:25:00,34.2,21.3,30.28,NNE,23,0.4,0.7,59,0.00,,,0.00,WUHU216HW,2013-04-16 13:25:00,
2013-04-16 06:30:00,34.2,21.3,30.29,NNE,23,0.0,0.7,59,0.00,,,0.00,WUHU216HW,2013-04-16 13:30:00,
2013-04-16 06:35:00,34.2,21.3,30.29,NNE,23,0.0,0.7,59,0.00,,,0.00,WUHU216HW,2013-04-16 13:35:00,
2013-04-16 06:40:00,34.4,21.5,30.29,NNE,23,0.0,0.2,59,0.00,,,0.00,WUHU216HW,2013-04-16 13:40:00,
2013-04-16 06:45:00,34.6,21.7,30.29,NNE,23,0.0,0.4,59,0.00,,,0.00,WUHU216HW,2013-04-16 13:45:00,
2013-04-16 06:50:00,34.9,22.1,30.29,NNE,23,0.0,0.4,59,0.00,,,0.00,WUHU216HW,2013-04-16 13:50:00,
2013-04-16 06:55:00,34.9,22.1,30.29,NNE,23,0.2,0.4,59,0.00,,,0.00,WUHU216HW,2013-04-16 13:55:00,
2013-04-16 07:00:00,35.1,22.7,30.29,NNE,23,0.4,0.7,60,0.00,,,0.00,WUHU216HW,2013-04-16 14:00:00,
2013-04-16 07:05:00,35.3,22.4,30.30,NE,45,0.0,0.7,59,0.00,,,0.00,WUHU216HW,2013-04-16 14:05:00,
2013-04-16 07:10:00,35.6,22.8,30.30,NE,45,0.0,0.4,59,0.00,,,0.00,WUHU216HW,2013-04-16 14:10:00,
2013-04-16 07:15:00,36.0,23.1,30.30,NE,45,0.0,0.4,59,0.00,,,0.00,WUHU216HW,2013-04-16 14:15:00,
2013-04-16 07:20:00,36.4,23.4,30.31,NE,45,0.0,0.4,59,0.00,,,0.00,WUHU216HW,2013-04-16 14:20:00,
2013-04-16 07:25:00,36.4,23.4,30.31,NE,45,0.0,0.0,59,0.00,,,0.00,WUHU216HW,2013-04-16 14:25:00,
2013-04-16 07:30:00,36.7,23.3,30.31,NE,45,0.0,0.0,58,0.00,,,0.00,WUHU216HW,2013-04-16 14:30:00,
2013-04-16 07:35:00,37.1,23.7,30.31,NE,45,0.0,0.0,58,0.00,,,0.00,WUHU216HW,2013-04-16 14:35:00,
2013-04-16 07:40:00,37.4,23.9,30.31,NE,45,0.0,0.0,58,0.00,,,0.00,WUHU216HW,2013-04-16 14:40:00,
2013-04-16 07:45:00,37.6,24.1,30.31,NE,45,0.0,0.0,58,0.00,,,0.00,WUHU216HW,2013-04-16 14:45:00,
2013-04-16 07:50:00,37.8,24.3,30.31,NE,45,0.2,0.2,58,0.00,,,0.00,WUHU216HW,2013-04-16 14:50:00,
2013-04-16 07:55:00,38.2,24.2,30.32,East,90,0.4,0.9,57,0.00,,,0.00,WUHU216HW,2013-04-16 14:55:00,
2013-04-16 08:00:00,38.3,24.4,30.32,East,90,0.2,1.1,57,0.00,,,0.00,WUHU216HW,2013-04-16 15:00:00,
2013-04-16 08:05:00,38.5,24.5,30.32,North,0,0.4,1.1,57,0.00,,,0.00,WUHU216HW,2013-04-16 15:05:00,
2013-04-16 08:10:00,38.9,24.8,30.32,NNW,338,0.0,0.9,57,0.00,,,0.00,WUHU216HW,2013-04-16 15:10:00,
2013-04-16 08:15:00,39.2,25.2,30.32,NNW,338,0.0,0.9,57,0.00,,,0.00,WUHU216HW,2013-04-16 15:15:00,
2013-04-16 08:20:00,39.4,25.4,30.32,NNW,338,0.0,0.2,57,0.00,,,0.00,WUHU216HW,2013-04-16 15:20:00,
2013-04-16 08:25:00,39.6,25.1,30.32,East,90,0.0,0.9,56,0.00,,,0.00,WUHU216HW,2013-04-16 15:25:00,
2013-04-16 08:30:00,39.8,25.3,30.33,East,90,0.0,0.9,56,0.00,,,0.00,WUHU216HW,2013-04-16 15:30:00,
2013-04-16 08:35:00,40.0,25.4,30.33,East,90,0.0,0.4,56,0.00,,,0.00,WUHU216HW,2013-04-16 15:35:00,
2013-04-16 08:40:00,40.1,25.6,30.33,East,90,0.0,0.0,56,0.00,,,0.00,WUHU216HW,2013-04-16 15:40:00,
2013-04-16 08:45:00,40.5,25.9,30.33,SW,225,0.0,0.7,56,0.00,,,0.00,WUHU216HW,2013-04-16 15:45:00,
2013-04-16 08:50:00,40.9,26.3,30.33,SW,225,0.0,0.7,56,0.00,,,0.00,WUHU216HW,2013-04-16 15:50:00,
2013-04-16 08:55:00,41.0,26.0,30.33,SW,225,0.0,0.7,55,0.00,,,0.00,WUHU216HW,2013-04-16 15:55:00,
2013-04-16 09:00:00,41.2,26.2,30.33,SSW,203,0.4,0.4,55,0.00,,,0.00,WUHU216HW,2013-04-16 16:00:00,
2013-04-16 09:05:00,41.4,26.4,30.33,SSW,203,0.4,0.4,55,0.00,,,0.00,WUHU216HW,2013-04-16 16:05:00,
2013-04-16 09:10:00,41.6,26.6,30.33,SE,135,0.7,1.1,55,0.00,,,0.00,WUHU216HW,2013-04-16 16:10:00,
2013-04-16 09:15:00,41.9,26.9,30.33,SSW,203,0.0,1.1,55,0.00,,,0.00,WUHU216HW,2013-04-16 16:15:00,
2013-04-16 09:20:00,42.3,27.2,30.33,SW,225,0.0,0.9,55,0.00,,,0.00,WUHU216HW,2013-04-16 16:20:00,
2013-04-16 09:25:00,42.8,27.3,30.33,SW,225,0.0,0.9,54,0.00,,,0.00,WUHU216HW,2013-04-16 16:25:00,
2013-04-16 09:30:00,42.8,27.7,30.33,SE,135,0.9,1.6,55,0.00,,,0.00,WUHU216HW,2013-04-16 16:30:00,
2013-04-16 09:35:00,43.0,27.9,30.34,SSE,158,0.0,1.6,55,0.00,,,0.00,WUHU216HW,2013-04-16 16:35:00,
2013-04-16 09:40:00,43.0,27.9,30.34,SE,135,0.9,1.1,55,0.00,,,0.00,WUHU216HW,2013-04-16 16:40:00,
2013-04-16 09:45:00,43.2,28.1,30.34,SE,135,0.0,0.9,55,0.00,,,0.00,WUHU216HW,2013-04-16 16:45:00,
2013-04-16 09:50:00,43.2,28.1,30.34,SSE,158,0.4,0.7,55,0.00,,,0.00,WUHU216HW,2013-04-16 16:50:00,
2013-04-16 09:55:00,43.6,28.5,30.34,SSE,158,0.0,0.7,55,0.00,,,0.00,WUHU216HW,2013-04-16 16:55:00,
2013-04-16 10:00:00,44.1,28.9,30.34,WSW,248,1.1,1.1,55,0.00,,,0.00,WUHU216HW,2013-04-16 17:00:00,
2013-04-16 10:05:00,44.6,29.0,30.34,WSW,248,1.6,2.5,54,0.00,,,0.00,WUHU216HW,2013-04-16 17:05:00,
2013-04-16 10:10:00,45.4,30.1,30.34,WSW,248,0.9,2.5,55,0.00,,,0.00,WUHU216HW,2013-04-16 17:10:00,
2013-04-16 10:15:00,45.7,30.4,30.34,NW,315,3.4,3.8,55,0.00,,,0.00,WUHU216HW,2013-04-16 17:15:00,
2013-04-16 10:20:00,46.6,31.2,30.34,North,0,0.4,3.8,55,0.00,,,0.00,WUHU216HW,2013-04-16 17:20:00,
2013-04-16 10:25:00,48.2,32.3,30.34,West,270,3.1,3.1,54,0.00,,,0.00,WUHU216HW,2013-04-16 17:25:00,
2013-04-16 10:30:00,48.1,33.0,30.34,WSW,248,1.8,4.3,56,0.00,,,0.00,WUHU216HW,2013-04-16 17:30:00,
2013-04-16 10:35:00,47.9,33.4,30.34,West,270,2.7,5.4,57,0.00,,,0.00,WUHU216HW,2013-04-16 17:35:00,
2013-04-16 10:40:00,47.3,32.9,30.34,NNW,338,0.2,5.4,57,0.00,,,0.00,WUHU216HW,2013-04-16 17:40:00,
2013-04-16 10:45:00,47.0,32.5,30.34,West,270,1.8,3.8,57,0.00,,,0.00,WUHU216HW,2013-04-16 17:45:00,
2013-04-16 10:50:00,47.2,32.7,30.34,WSW,248,2.0,3.6,57,0.00,,,0.00,WUHU216HW,2013-04-16 17:50:00,
2013-04-16 10:55:00,47.2,32.7,30.34,West,270,0.4,3.6,57,0.00,,,0.00,WUHU216HW,2013-04-16 17:55:00,
2013-04-16 11:00:00,47.5,32.6,30.34,WSW,248,1.1,3.4,56,0.00,,,0.00,WUHU216HW,2013-04-16 18:00:00,
2013-04-16 11:05:00,49.3,33.3,30.34,NW,315,2.2,4.7,54,0.00,,,0.00,WUHU216HW,2013-04-16 18:05:00,
2013-04-16 11:10:00,50.8,34.7,30.34,WSW,248,3.1,5.4,54,0.00,,,0.00,WUHU216HW,2013-04-16 18:10:00,
2013-04-16 11:15:00,51.1,35.5,30.34,WNW,293,4.7,5.4,55,0.00,,,0.00,WUHU216HW,2013-04-16 18:15:00,
2013-04-16 11:20:00,51.5,35.7,30.34,ENE,68,0.2,5.1,55,0.00,,,0.00,WUHU216HW,2013-04-16 18:20:00,
2013-04-16 11:25:00,51.1,35.9,30.34,West,270,0.4,4.7,56,0.00,,,0.00,WUHU216HW,2013-04-16 18:25:00,
2013-04-16 11:30:00,50.0,35.8,30.34,North,0,0.4,1.8,58,0.00,,,0.00,WUHU216HW,2013-04-16 18:30:00,
2013-04-16 11:35:00,49.7,34.6,30.34,East,90,0.4,1.8,56,0.00,,,0.00,WUHU216HW,2013-04-16 18:35:00,
2013-04-16 11:40:00,49.3,35.2,30.34,NNE,23,0.0,1.8,58,0.00,,,0.00,WUHU216HW,2013-04-16 18:40:00,
2013-04-16 11:45:00,49.0,34.4,30.34,SSE,158,1.6,1.8,57,0.00,,,0.00,WUHU216HW,2013-04-16 18:45:00,
2013-04-16 11:50:00,49.7,35.0,30.34,NNW,338,0.7,1.8,57,0.00,,,0.00,WUHU216HW,2013-04-16 18:50:00,
2013-04-16 11:55:00,49.9,35.2,30.34,SSW,203,0.7,1.6,57,0.00,,,0.00,WUHU216HW,2013-04-16 18:55:00,
2013-04-16 12:00:00,50.8,37.8,30.34,SSW,203,0.7,2.2,61,0.00,,,0.00,WUHU216HW,2013-04-16 19:00:00,
2013-04-16 12:05:00,51.5,37.1,30.34,SE,135,1.1,2.5,58,0.00,,,0.00,WUHU216HW,2013-04-16 19:05:00,
2013-04-16 12:10:00,51.5,38.0,30.34,SE,135,2.0,2.5,60,0.00,,,0.00,WUHU216HW,2013-04-16 19:10:00,
2013-04-16 12:15:00,51.5,36.6,30.34,SW,225,1.1,2.0,57,0.00,,,0.00,WUHU216HW,2013-04-16 19:15:00,
2013-04-16 12:20:00,52.4,38.0,30.34,West,270,1.1,2.0,58,0.00,,,0.00,WUHU216HW,2013-04-16 19:20:00,
2013-04-16 12:25:00,52.0,39.0,30.34,SSW,203,2.0,2.2,61,0.00,,,0.00,WUHU216HW,2013-04-16 19:25:00,
2013-04-16 12:30:00,51.8,37.9,30.34,SW,225,0.0,2.2,59,0.00,,,0.00,WUHU216HW,2013-04-16 19:30:00,
2013-04-16 12:35:00,51.8,37.9,30.34,SW,225,0.9,2.2,59,0.00,,,0.00,WUHU216HW,2013-04-16 19:35:00,
2013-04-16 12:40:00,51.7,37.3,30.34,West,270,0.9,1.8,58,0.00,,,0.00,WUHU216HW,2013-04-16 19:40:00,
2013-04-16 12:45:00,51.5,37.1,30.34,WSW,248,0.7,1.8,58,0.00,,,0.00,WUHU216HW,2013-04-16 19:45:00,
2013-04-16 12:50:00,50.9,36.2,30.34,NNW,338,0.2,1.8,57,0.00,,,0.00,WUHU216HW,2013-04-16 19:50:00,
2013-04-16 12:55:00,50.4,36.2,30.34,WNW,293,1.1,1.8,58,0.00,,,0.00,WUHU216HW,2013-04-16 19:55:00,
2013-04-16 13:00:00,50.0,35.4,30.34,SSW,203,0.2,1.8,57,0.00,,,0.00,WUHU216HW,2013-04-16 20:00:00,
2013-04-16 13:05:00,50.0,34.5,30.34,SE,135,1.3,1.3,55,0.00,,,0.00,WUHU216HW,2013-04-16 20:05:00,
2013-04-16 13:10:00,49.9,34.7,30.34,SE,135,0.0,1.3,56,0.00,,,0.00,WUHU216HW,2013-04-16 20:10:00,
2013-04-16 13:15:00,49.7,34.1,30.34,WSW,248,1.1,1.1,55,0.00,,,0.00,WUHU216HW,2013-04-16 20:15:00,
2013-04-16 13:20:00,49.9,33.4,30.34,SW,225,0.4,1.1,53,0.00,,,0.00,WUHU216HW,2013-04-16 20:20:00,
2013-04-16 13:25:00,50.6,34.0,30.34,SW,225,0.4,1.6,53,0.00,,,0.00,WUHU216HW,2013-04-16 20:25:00,
2013-04-16 13:30:00,50.8,35.1,30.34,SSE,158,0.4,1.6,55,0.00,,,0.00,WUHU216HW,2013-04-16 20:30:00,
2013-04-16 13:35:00,51.1,35.0,30.34,SSW,203,1.1,4.0,54,0.00,,,0.00,WUHU216HW,2013-04-16 20:35:00,
2013-04-16 13:40:00,51.8,37.0,30.34,SSE,158,1.3,4.0,57,0.00,,,0.00,WUHU216HW,2013-04-16 20:40:00,
2013-04-16 13:45:00,51.7,37.7,30.34,SSE,158,1.8,4.0,59,0.00,,,0.00,WUHU216HW,2013-04-16 20:45:00,
2013-04-16 13:50:00,52.2,38.3,30.34,NW,315,2.2,4.0,59,0.00,,,0.00,WUHU216HW,2013-04-16 20:50:00,
2013-04-16 13:55:00,52.6,38.2,30.34,WSW,248,1.3,4.0,58,0.00,,,0.00,WUHU216HW,2013-04-16 20:55:00,
2013-04-16 14:00:00,52.4,38.4,30.34,SE,135,1.8,2.7,59,0.00,,,0.00,WUHU216HW,2013-04-16 21:00:00,
2013-04-16 14:05:00,52.4,38.4,30.34,SW,225,0.4,2.5,59,0.00,,,0.00,WUHU216HW,2013-04-16 21:05:00,
2013-04-16 14:10:00,52.7,39.2,30.34,SE,135,2.2,3.4,60,0.00,,,0.00,WUHU216HW,2013-04-16 21:10:00,
2013-04-16 14:15:00,52.9,39.0,30.34,WNW,293,2.5,4.0,59,0.00,,,0.00,WUHU216HW,2013-04-16 21:15:00,
2013-04-16 14:20:00,52.9,39.0,30.34,NNW,338,0.7,4.0,59,0.00,,,0.00,WUHU216HW,2013-04-16 21:20:00,
2013-04-16 14:25:00,52.7,38.8,30.34,NE,45,1.3,4.0,59,0.00,,,0.00,WUHU216HW,2013-04-16 21:25:00,
2013-04-16 14:30:00,52.4,38.4,30.34,South,180,0.4,4.0,59,0.00,,,0.00,WUHU216HW,2013-04-16 21:30:00,
2013-04-16 14:35:00,52.4,38.4,30.34,NE,45,0.0,1.8,59,0.00,,,0.00,WUHU216HW,2013-04-16 21:35:00,
2013-04-16 14:40:00,52.4,38.4,30.34,East,90,1.1,1.8,59,0.00,,,0.00,WUHU216HW,2013-04-16 21:40:00,
2013-04-16 14:45:00,52.6,38.6,30.34,West,270,1.1,2.7,59,0.00,,,0.00,WUHU216HW,2013-04-16 21:45:00,
2013-04-16 14:50:00,52.7,37.9,30.34,WNW,293,1.6,2.7,57,0.00,,,0.00,WUHU216HW,2013-04-16 21:50:00,
2013-04-16 14:55:00,52.9,38.5,30.34,WSW,248,0.0,2.5,58,0.00,,,0.00,WUHU216HW,2013-04-16 21:55:00,
2013-04-16 15:00:00,52.7,38.4,30.35,West,270,0.4,2.5,58,0.00,,,0.00,WUHU216HW,2013-04-16 22:00:00,
2013-04-16 15:05:00,52.2,38.3,30.35,SE,135,3.4,4.9,59,0.00,,,0.00,WUHU216HW,2013-04-16 22:05:00,
2013-04-16 15:10:00,51.1,35.9,30.35,ENE,68,2.9,6.5,56,0.00,,,0.00,WUHU216HW,2013-04-16 22:10:00,
2013-04-16 15:15:00,50.8,36.0,30.36,ESE,113,2.7,6.5,57,0.00,,,0.00,WUHU216HW,2013-04-16 22:15:00,
2013-04-16 15:20:00,50.8,36.5,30.36,SE,135,1.3,3.8,58,0.00,,,0.00,WUHU216HW,2013-04-16 22:20:00,
2013-04-16 15:25:00,51.1,36.8,30.36,SE,135,2.9,3.8,58,0.00,,,0.00,WUHU216HW,2013-04-16 22:25:00,
2013-04-16 15:30:00,51.5,36.6,30.36,ENE,68,0.9,4.7,57,0.00,,,0.00,WUHU216HW,2013-04-16 22:30:00,
2013-04-16 15:35:00,52.0,37.6,30.36,NNE,23,2.9,6.7,58,0.00,,,0.00,WUHU216HW,2013-04-16 22:35:00,
2013-04-16 15:40:00,52.2,37.4,30.36,NNW,338,4.0,6.7,57,0.00,,,0.00,WUHU216HW,2013-04-16 22:40:00,
2013-04-16 15:45:00,52.4,37.5,30.36,WNW,293,4.3,7.8,57,0.00,,,0.00,WUHU216HW,2013-04-16 22:45:00,
2013-04-16 15:50:00,52.2,37.4,30.36,WNW,293,2.5,7.8,57,0.00,,,0.00,WUHU216HW,2013-04-16 22:50:00,
2013-04-16 15:55:00,52.0,37.2,30.36,NW,315,2.0,6.9,57,0.00,,,0.00,WUHU216HW,2013-04-16 22:55:00,
2013-04-16 16:00:00,51.8,37.4,30.36,WNW,293,1.8,6.9,58,0.00,,,0.00,WUHU216HW,2013-04-16 23:00:00,
2013-04-16 16:05:00,51.7,37.3,30.36,NW,315,1.8,4.7,58,0.00,,,0.00,WUHU216HW,2013-04-16 23:05:00,
2013-04-16 16:10:00,51.5,37.1,30.36,NW,315,4.0,6.0,58,0.00,,,0.00,WUHU216HW,2013-04-16 23:10:00,
2013-04-16 16:15:00,50.9,37.1,30.36,NNW,338,4.5,6.0,59,0.00,,,0.00,WUHU216HW,2013-04-16 23:15:00,
2013-04-16 16:20:00,50.8,36.9,30.36,NW,315,4.0,7.6,59,0.00,,,0.00,WUHU216HW,2013-04-16 23:20:00,
2013-04-16 16:25:00,50.6,36.7,30.36,WNW,293,4.3,7.6,59,0.00,,,0.00,WUHU216HW,2013-04-16 23:25:00,
2013-04-16 16:30:00,50.4,37.1,30.36,NW,315,1.8,5.8,60,0.00,,,0.00,WUHU216HW,2013-04-16 23:30:00,
2013-04-16 16:35:00,50.2,36.9,30.36,North,0,0.4,4.7,60,0.00,,,0.00,WUHU216HW,2013-04-16 23:35:00,
2013-04-16 16:40:00,50.0,36.7,30.36,WNW,293,4.0,4.0,60,0.00,,,0.00,WUHU216HW,2013-04-16 23:40:00,
2013-04-16 16:45:00,49.7,36.4,30.36,NW,315,3.4,4.7,60,0.00,,,0.00,WUHU216HW,2013-04-16 23:45:00,
2013-04-16 16:50:00,49.9,36.5,30.36,SW,225,2.0,4.7,60,0.00,,,0.00,WUHU216HW,2013-04-16 23:50:00,
2013-04-16 16:55:00,50.0,36.7,30.35,SW,225,2.9,4.0,60,0.00,,,0.00,WUHU216HW,2013-04-16 23:55:00,
2013-04-16 17:00:00,50.4,37.1,30.35,NW,315,2.0,4.5,60,0.00,,,0.00,WUHU216HW,2013-04-17 00:00:00,
2013-04-16 17:05:00,50.8,37.4,30.35,West,270,1.3,4.7,60,0.00,,,0.00,WUHU216HW,2013-04-17 00:05:00,
2013-04-16 17:10:00,50.8,37.4,30.35,North,0,1.1,4.7,60,0.00,,,0.00,WUHU216HW,2013-04-17 00:10:00,
2013-04-16 17:15:00,51.1,37.7,30.35,WNW,293,2.7,3.8,60,0.00,,,0.00,WUHU216HW,2013-04-17 00:15:00,
2013-04-16 17:20:00,51.5,37.5,30.35,SW,225,0.2,3.8,59,0.00,,,0.00,WUHU216HW,2013-04-17 00:20:00,
2013-04-16 17:25:00,51.5,37.5,30.35,ENE,68,1.1,2.9,59,0.00,,,0.00,WUHU216HW,2013-04-17 00:25:00,
2013-04-16 17:30:00,51.5,36.6,30.35,NW,315,5.4,5.4,57,0.00,,,0.00,WUHU216HW,2013-04-17 00:30:00,
2013-04-16 17:35:00,51.8,37.4,30.35,NNW,338,1.1,5.4,58,0.00,,,0.00,WUHU216HW,2013-04-17 00:35:00,
2013-04-16 17:40:00,52.0,36.7,30.35,NE,45,2.0,5.6,56,0.00,,,0.00,WUHU216HW,2013-04-17 00:40:00,
2013-04-16 17:45:00,52.0,35.8,30.35,NE,45,0.4,5.6,54,0.00,,,0.00,WUHU216HW,2013-04-17 00:45:00,
2013-04-16 17:50:00,52.0,36.3,30.35,SSE,158,0.4,4.3,55,0.00,,,0.00,WUHU216HW,2013-04-17 00:50:00,
2013-04-16 17:55:00,52.2,36.9,30.35,NNW,338,0.4,4.3,56,0.00,,,0.00,WUHU216HW,2013-04-17 00:55:00,
2013-04-16 18:00:00,52.2,36.5,30.35,NE,45,6.3,6.3,55,0.00,,,0.00,WUHU216HW,2013-04-17 01:00:00,
2013-04-16 18:05:00,52.4,36.6,30.35,WNW,293,1.8,6.3,55,0.00,,,0.00,WUHU216HW,2013-04-17 01:05:00,
2013-04-16 18:10:00,52.2,37.4,30.35,WNW,293,0.7,6.3,57,0.00,,,0.00,WUHU216HW,2013-04-17 01:10:00,
2013-04-16 18:15:00,52.4,38.0,30.35,NW,315,0.4,2.5,58,0.00,,,0.00,WUHU216HW,2013-04-17 01:15:00,
2013-04-16 18:20:00,52.2,37.4,30.35,NNW,338,2.0,2.9,57,0.00,,,0.00,WUHU216HW,2013-04-17 01:20:00,
2013-04-16 18:25:00,52.2,37.4,30.35,NW,315,1.6,3.4,57,0.00,,,0.00,WUHU216HW,2013-04-17 01:25:00,
2013-04-16 18:30:00,52.2,37.8,30.35,NW,315,1.1,3.8,58,0.00,,,0.00,WUHU216HW,2013-04-17 01:30:00,
2013-04-16 18:35:00,52.2,37.8,30.35,NNW,338,1.6,3.8,58,0.00,,,0.00,WUHU216HW,2013-04-17 01:35:00,
2013-04-16 18:40:00,52.2,37.8,30.35,NW,315,3.8,3.8,58,0.00,,,0.00,WUHU216HW,2013-04-17 01:40:00,
2013-04-16 18:45:00,52.2,36.9,30.35,NW,315,2.5,5.8,56,0.00,,,0.00,WUHU216HW,2013-04-17 01:45:00,
2013-04-16 18:50:00,52.0,37.2,30.35,WSW,248,1.8,5.8,57,0.00,,,0.00,WUHU216HW,2013-04-17 01:50:00,
2013-04-16 18:55:00,51.8,37.0,30.36,NNW,338,0.2,5.4,57,0.00,,,0.00,WUHU216HW,2013-04-17 01:55:00,
2013-04-16 19:00:00,51.8,37.0,30.36,WSW,248,0.4,2.5,57,0.00,,,0.00,WUHU216HW,2013-04-17 02:00:00,
2013-04-16 19:05:00,51.5,36.6,30.36,NNE,23,0.7,2.0,57,0.00,,,0.00,WUHU216HW,2013-04-17 02:05:00,
2013-04-16 19:10:00,51.5,36.6,30.36,WNW,293,1.8,4.5,57,0.00,,,0.00,WUHU216HW,2013-04-17 02:10:00,
2013-04-16 19:15:00,51.5,37.1,30.36,NNW,338,0.4,4.5,58,0.00,,,0.00,WUHU216HW,2013-04-17 02:15:00,
2013-04-16 19:20:00,51.1,36.8,30.36,ENE,68,0.2,2.9,58,0.00,,,0.00,WUHU216HW,2013-04-17 02:20:00,
2013-04-16 19:25:00,50.9,36.6,30.36,ENE,68,0.0,1.8,58,0.00,,,0.00,WUHU216HW,2013-04-17 02:25:00,
2013-04-16 19:30:00,50.8,36.9,30.36,ENE,68,0.0,0.4,59,0.00,,,0.00,WUHU216HW,2013-04-17 02:30:00,
2013-04-16 19:35:00,50.4,36.6,30.36,ENE,68,0.0,0.4,59,0.00,,,0.00,WUHU216HW,2013-04-17 02:35:00,
2013-04-16 19:40:00,50.0,36.7,30.36,ENE,68,0.9,0.9,60,0.00,,,0.00,WUHU216HW,2013-04-17 02:40:00,
2013-04-16 19:45:00,49.5,36.3,30.37,ENE,68,0.2,0.9,60,0.00,,,0.00,WUHU216HW,2013-04-17 02:45:00,
2013-04-16 19:50:00,49.1,35.9,30.37,East,90,0.9,1.6,60,0.00,,,0.00,WUHU216HW,2013-04-17 02:50:00,
2013-04-16 19:55:00,48.6,35.8,30.36,ESE,113,0.9,1.6,61,0.00,,,0.00,WUHU216HW,2013-04-17 02:55:00,
2013-04-16 20:00:00,48.2,35.5,30.37,ESE,113,0.0,1.1,61,0.00,,,0.00,WUHU216HW,2013-04-17 03:00:00,
2013-04-16 20:05:00,48.1,35.3,30.37,ESE,113,0.0,0.7,61,0.00,,,0.00,WUHU216HW,2013-04-17 03:05:00,
2013-04-16 20:10:00,47.5,34.7,30.38,NNE,23,0.7,1.8,61,0.00,,,0.00,WUHU216HW,2013-04-17 03:10:00,
2013-04-16 20:15:00,47.2,34.4,30.38,NNE,23,0.9,1.8,61,0.00,,,0.00,WUHU216HW,2013-04-17 03:15:00,
2013-04-16 20:20:00,46.8,34.0,30.38,NNE,23,0.4,0.9,61,0.00,,,0.00,WUHU216HW,2013-04-17 03:20:00,
2013-04-16 20:25:00,46.6,33.8,30.38,NNE,23,0.2,0.9,61,0.00,,,0.00,WUHU216HW,2013-04-17 03:25:00,
2013-04-16 20:30:00,46.3,33.6,30.38,NNE,23,0.7,1.1,61,0.00,,,0.00,WUHU216HW,2013-04-17 03:30:00,
2013-04-16 20:35:00,45.7,33.0,30.39,NNE,23,0.7,1.1,61,0.00,,,0.00,WUHU216HW,2013-04-17 03:35:00,
2013-04-16 20:40:00,45.5,32.9,30.39,NNE,23,0.4,1.1,61,0.00,,,0.00,WUHU216HW,2013-04-17 03:40:00,
2013-04-16 20:45:00,45.4,32.7,30.39,NNE,23,1.3,1.8,61,0.00,,,0.00,WUHU216HW,2013-04-17 03:45:00,
2013-04-16 20:50:00,45.0,32.4,30.39,NNE,23,0.9,1.8,61,0.00,,,0.00,WUHU216HW,2013-04-17 03:50:00,
2013-04-16 20:55:00,44.6,32.0,30.39,NNE,23,0.4,1.1,61,0.00,,,0.00,WUHU216HW,2013-04-17 03:55:00,
2013-04-16 21:00:00,44.3,31.7,30.39,NNE,23,0.7,0.9,61,0.00,,,0.00,WUHU216HW,2013-04-17 04:00:00,
2013-04-16 21:05:00,44.1,31.1,30.39,NNE,23,0.9,1.1,60,0.00,,,0.00,WUHU216HW,2013-04-17 04:05:00,
2013-04-16 21:10:00,43.7,30.8,30.40,NNE,23,1.1,1.3,60,0.00,,,0.00,WUHU216HW,2013-04-17 04:10:00,
2013-04-16 21:15:00,43.6,30.6,30.40,NNE,23,0.7,1.3,60,0.00,,,0.00,WUHU216HW,2013-04-17 04:15:00,
2013-04-16 21:20:00,43.6,30.6,30.40,NNE,23,0.2,1.1,60,0.00,,,0.00,WUHU216HW,2013-04-17 04:20:00,
2013-04-16 21:25:00,43.6,30.6,30.40,ENE,68,0.9,1.1,60,0.00,,,0.00,WUHU216HW,2013-04-17 04:25:00,
2013-04-16 21:30:00,43.2,30.2,30.40,ENE,68,0.7,1.1,60,0.00,,,0.00,WUHU216HW,2013-04-17 04:30:00,
2013-04-16 21:35:00,43.0,30.4,30.40,ENE,68,0.4,1.1,61,0.00,,,0.00,WUHU216HW,2013-04-17 04:35:00,
2013-04-16 21:40:00,42.8,29.9,30.40,ENE,68,0.9,1.3,60,0.00,,,0.00,WUHU216HW,2013-04-17 04:40:00,
2013-04-16 21:45:00,42.7,29.7,30.40,ENE,68,0.0,1.3,60,0.00,,,0.00,WUHU216HW,2013-04-17 04:45:00,
2013-04-16 21:50:00,42.5,29.2,30.41,ENE,68,0.9,1.3,59,0.00,,,0.00,WUHU216HW,2013-04-17 04:50:00,
2013-04-16 21:55:00,42.1,28.8,30.41,NE,45,0.9,1.3,59,0.00,,,0.00,WUHU216HW,2013-04-17 04:55:00,
2013-04-16 22:00:00,41.9,28.6,30.41,NE,45,0.0,1.6,59,0.00,,,0.00,WUHU216HW,2013-04-17 05:00:00,
2013-04-16 22:05:00,41.8,28.4,30.41,NE,45,0.0,1.6,59,0.00,,,0.00,WUHU216HW,2013-04-17 05:05:00,
2013-04-16 22:10:00,41.8,28.4,30.41,NE,45,0.0,0.9,59,0.00,,,0.00,WUHU216HW,2013-04-17 05:10:00,
2013-04-16 22:15:00,41.6,27.9,30.41,NE,45,1.3,1.3,58,0.00,,,0.00,WUHU216HW,2013-04-17 05:15:00,
2013-04-16 22:20:00,41.4,27.3,30.41,ENE,68,0.7,1.8,57,0.00,,,0.00,WUHU216HW,2013-04-17 05:20:00,
2013-04-16 22:25:00,41.2,27.1,30.41,SE,135,0.9,1.8,57,0.00,,,0.00,WUHU216HW,2013-04-17 05:25:00,
2013-04-16 22:30:00,41.0,26.9,30.42,ENE,68,1.1,1.8,57,0.00,,,0.00,WUHU216HW,2013-04-17 05:30:00,
2013-04-16 22:35:00,41.0,26.9,30.42,NE,45,0.0,1.1,57,0.00,,,0.00,WUHU216HW,2013-04-17 05:35:00,
2013-04-16 22:40:00,41.0,26.9,30.42,NNE,23,0.0,1.8,57,0.00,,,0.00,WUHU216HW,2013-04-17 05:40:00,
2013-04-16 22:45:00,40.9,26.7,30.42,NNE,23,0.4,1.8,57,0.00,,,0.00,WUHU216HW,2013-04-17 05:45:00,
2013-04-16 22:50:00,40.7,27.0,30.42,NNE,23,0.2,0.9,58,0.00,,,0.00,WUHU216HW,2013-04-17 05:50:00,
2013-04-16 22:55:00,40.7,27.0,30.42,ESE,113,0.7,1.1,58,0.00,,,0.00,WUHU216HW,2013-04-17 05:55:00,
2013-04-16 23:00:00,40.5,26.8,30.42,East,90,0.4,1.1,58,0.00,,,0.00,WUHU216HW,2013-04-17 06:00:00,
2013-04-16 23:05:00,40.3,26.2,30.42,ENE,68,0.4,1.6,57,0.00,,,0.00,WUHU216HW,2013-04-17 06:05:00,
2013-04-16 23:10:00,40.3,26.2,30.42,East,90,0.0,1.6,57,0.00,,,0.00,WUHU216HW,2013-04-17 06:10:00,
2013-04-16 23:15:00,40.0,26.3,30.42,East,90,0.2,1.3,58,0.00,,,0.00,WUHU216HW,2013-04-17 06:15:00,
2013-04-16 23:20:00,40.0,26.3,30.42,ENE,68,0.0,1.3,58,0.00,,,0.00,WUHU216HW,2013-04-17 06:20:00,
2013-04-16 23:25:00,40.0,26.3,30.42,ENE,68,0.9,1.1,58,0.00,,,0.00,WUHU216HW,2013-04-17 06:25:00,
2013-04-16 23:30:00,40.0,26.3,30.42,NE,45,0.0,1.1,58,0.00,,,0.00,WUHU216HW,2013-04-17 06:30:00,
2013-04-16 23:35:00,39.8,26.1,30.42,ENE,68,0.9,1.1,58,0.00,,,0.00,WUHU216HW,2013-04-17 06:35:00,
2013-04-16 23:40:00,39.6,25.5,30.42,ENE,68,0.2,0.9,57,0.00,,,0.00,WUHU216HW,2013-04-17 06:40:00,
2013-04-16 23:45:00,39.6,25.9,30.42,East,90,0.0,0.9,58,0.00,,,0.00,WUHU216HW,2013-04-17 06:45:00,
2013-04-16 23:50:00,39.6,25.9,30.42,ESE,113,0.4,1.1,58,0.00,,,0.00,WUHU216HW,2013-04-17 06:50:00,
2013-04-16 23:55:00,39.4,25.7,30.42,ESE,113,0.2,1.1,58,0.00,,,0.00,WUHU216HW,2013-04-17 06:55:00,